Aviation Digital Data Service (ADDS)

Output produced by METARs form (0619 UTC 26 June 2016)
found at http://aviationweather.gov/adds/metars/
 
KAEX 260520Z 2606/2706 00000KT P6SM SKC 
     FM261500 18006KT P6SM VCSH SCT040